This is the latest recevied weather packets stored in our database for station/object KN6WGU. If no packets are shown the sender has not sent any weather packets the latest 10 day(s).
| Time | Temp. | Humidity | Pressure | Rain* | Wind** | Luminosity | Snow |
|---|---|---|---|---|---|---|---|
| 1778182726 | 12.22° C | 57% | 1005.4 hPa | 0 mm | - | 138 W/m² | - |
| 1778182423 | 12.78° C | 57% | 1005.7 hPa | 0 mm | - | 117 W/m² | - |
| 1778182119 | 13.89° C | 55% | 1005.6 hPa | 0 mm | - | 161 W/m² | - |
| 1778181816 | 13.89° C | 56% | 1005.7 hPa | 0 mm | - | 195 W/m² | - |
| 1778181512 | 13.33° C | 58% | 1005.8 hPa | 0 mm | - | 346 W/m² | - |
| 1778181208 | 12.78° C | 59% | 1005.7 hPa | 0 mm | - | 545 W/m² | - |
| 1778180906 | 13.33° C | 57% | 1005.6 hPa | 0 mm | - | 165 W/m² | - |
| 1778180604 | 13.89° C | 54% | 1005.6 hPa | 0 mm | - | 589 W/m² | - |
| 1778180302 | 13.33° C | 55% | 1005.9 hPa | 0 mm | - | 255 W/m² | - |
| 1778179999 | 13.89° C | 54% | 1005.8 hPa | 0 mm | - | 152 W/m² | - |
| 1778179696 | 14.44° C | 51% | 1005.8 hPa | 0 mm | - | 140 W/m² | - |
| 1778179394 | 13.89° C | 54% | 1005.8 hPa | 0 mm | - | 811 W/m² | - |
| 1778179091 | 13.89° C | 51% | 1005.9 hPa | 0 mm | - | 225 W/m² | - |
| 1778178788 | 13.89° C | 55% | 1005.9 hPa | 0 mm | - | 289 W/m² | - |
| 1778178485 | 13.89° C | 53% | 1005.9 hPa | 0 mm | - | 486 W/m² | - |
| 1778178181 | 14.44° C | 54% | 1005.8 hPa | 0 mm | - | 815 W/m² | - |
| 1778177877 | 14.44° C | 54% | 1005.7 hPa | 0 mm | - | 296 W/m² | - |
| 1778177574 | 14.44° C | 54% | 1005.8 hPa | 0 mm | - | 746 W/m² | - |
| 1778177270 | 13.89° C | 57% | 1006 hPa | 0 mm | - | 761 W/m² | - |
| 1778176968 | 14.44° C | 53% | 1005.9 hPa | 0 mm | - | 748 W/m² | - |
| 1778176663 | 13.89° C | 52% | 1005.9 hPa | 0 mm | - | 725 W/m² | - |
| 1778176360 | 13.89° C | 53% | 1006.1 hPa | 0 mm | - | 737 W/m² | - |
| 1778176057 | 13.89° C | 55% | 1006 hPa | 0 mm | - | 728 W/m² | - |
| 1778175755 | 13.89° C | 56% | 1006 hPa | 0 mm | - | 527 W/m² | - |
| 1778175452 | 13.33° C | 58% | 1006 hPa | 0 mm | - | 244 W/m² | - |
* Rain latest hour (hover to see other rain measurements)
** Current wind speed in m/s (hover to see current wind gust speed)